Главная страница
METAR-TAF:

METAR-TAF

Аэропорты :

Борнхольм

Рённе, Дания

широта: 55-04N, долгота: 014-45E, высота над уровнем моря: 16 м

Текущие метеонаблюдения

Эта сводка был подготовлена 21 минут назад, в 15:50 UTC
Ветер 4 Узел от южный, изменяющийся между юго-восточный и южный-юго-западный
Температура 12°C
Влажность 76%
Давление 1004 hPa
Видимость 10 км и более
Нет облачности ниже 1500 м, и нет кучево-дождевой облачности

METAR: EKRN 141550Z 17004KT 130V200 CAVOK 12/08 Q1004

Время: 18:11 (16:11 UTC)

Прогноз

Эта сводка был подготовлена 1 час и 44 минут назад, в 14:27 UTC
Прогноз действительный с 14-го 15 UTC до 14-го 21 UTC
Ветер 8 Узел от юго-восточный
Видимость 10 км и более
Нет облачности ниже 1500 м, и нет кучево-дождевой облачности

TAF: EKRN 141427Z 1415/1421 13008KT CAVOK

Метеонаблюдения и прогнозы для более 4000 аэропортов (сводки METAR и TAF).

Имеющиеся станции представлены на карте желтыми и красными точками.

Чтобы увидеть название станции, наведите на нее мышь.

Затем щелкните, чтобы увидеть метеонаблюдения и метеопрогнозы.

Управление картой: чтобы увеличить масштаб, щелкните зеленые кнопки с черным крестиком; чтобы уменьшить масштаб, щелкните зеленую кнопку с тире; для просмотра соседних карт щелкайте зеленые стрелки.


METAR-TAF: